KIPT

Williamsport Regional Airport

Williamsport, Pennsylvania, USA
METAR KIPT 182054Z 26005KT 10SM FEW060 OVC075 25/19 A2983 RMK AO2 SLP098 60000 T02500194 55005
Observed Flight Rules
Aug-18 @ 20:54 UTC (59 minutes ago) Visual Flight Rules
Wind Visibility Clouds
260° at 5 knots 10 miles
  • Few at 6,000' AGL
  • Overcast at 7,500' AGL
Temperatures Readings
Current 25°C / 77°F
Dewpoint 19°C / 66°F
Humidity 69%
Altimeter 29.83" Hg
Pressure 1009.8 hPa
Elevation 164
METAR KIPT 182054Z 26005KT 10SM FEW060 OVC075 25/19 A2983 RMK AO2 SLP098 60000 T02500194 55005
Observed Flight Rules
Aug-18 @ 20:54 UTC
(59 minutes ago)
VFR
Wind Visibility
260° at 5 knots 10 miles
Clouds
  • Few at 6,000' AGL
  • Overcast at 7,500' AGL
Temperature Dewpoint
25°C / 77°F 19°C / 66°F
Humidity Altimeter Pressure
69% 29.83" Hg 1009.8 hPa